createdAt,value
2022-12-03T00:00:26.324Z,14.10
2022-12-03T00:01:26.338Z,13.90
2022-12-03T00:02:26.463Z,13.50
2022-12-03T00:03:26.473Z,13.60
2022-12-03T00:04:26.282Z,13.50
2022-12-03T00:05:26.271Z,13.50
2022-12-03T00:06:28.978Z,14.40
2022-12-03T00:07:27.335Z,14.50
2022-12-03T00:08:26.239Z,13.40
2022-12-03T00:09:26.233Z,13.90
2022-12-03T00:10:26.218Z,13.90
2022-12-03T00:11:26.215Z,13.70
2022-12-03T00:12:26.200Z,13.90
2022-12-03T00:13:26.187Z,13.60
2022-12-03T00:14:26.175Z,13.60
2022-12-03T00:15:26.172Z,13.70
2022-12-03T00:16:26.269Z,14.10
2022-12-03T00:17:26.185Z,14.10
2022-12-03T00:18:26.133Z,13.80
2022-12-03T00:19:26.121Z,13.50
2022-12-03T00:20:26.114Z,13.80
2022-12-03T00:21:26.114Z,13.90
2022-12-03T00:22:26.091Z,13.50
2022-12-03T00:23:26.083Z,13.90
2022-12-03T00:24:26.070Z,13.60
2022-12-03T00:25:26.061Z,14.30
2022-12-03T00:26:26.059Z,13.70
2022-12-03T00:27:26.052Z,13.80
2022-12-03T00:28:26.032Z,14.10
2022-12-03T00:29:26.018Z,14.10
2022-12-03T00:30:26.012Z,13.90
2022-12-03T00:31:26.139Z,13.60
2022-12-03T00:32:25.989Z,13.60
2022-12-03T00:33:25.992Z,14.00
2022-12-03T00:34:25.965Z,13.80
2022-12-03T00:35:25.957Z,13.80
2022-12-03T00:36:25.956Z,14.00
2022-12-03T00:37:25.946Z,14.30
2022-12-03T00:38:25.928Z,13.70
2022-12-03T00:39:25.912Z,14.00
2022-12-03T00:40:25.906Z,14.20
2022-12-03T00:41:25.906Z,13.80
2022-12-03T00:42:25.882Z,14.10
2022-12-03T00:43:25.867Z,13.80
2022-12-03T00:44:25.863Z,13.70
2022-12-03T00:45:25.846Z,14.10
2022-12-03T00:46:25.917Z,14.10
2022-12-03T00:47:25.825Z,14.20
2022-12-03T00:48:25.834Z,14.40
2022-12-03T00:49:25.836Z,14.30
2022-12-03T00:50:25.808Z,14.10
2022-12-03T00:51:25.793Z,14.10
2022-12-03T00:52:25.774Z,14.10
2022-12-03T00:53:25.764Z,14.20
2022-12-03T00:54:31.575Z,14.10
2022-12-03T00:55:26.741Z,14.00
2022-12-03T00:56:25.749Z,14.40
2022-12-03T00:57:25.724Z,14.20
2022-12-03T00:58:25.711Z,14.30
2022-12-03T00:59:25.702Z,14.30
2022-12-03T01:00:25.692Z,14.20
2022-12-03T01:01:25.758Z,14.20
2022-12-03T01:02:25.671Z,13.70
2022-12-03T01:03:25.663Z,13.70
2022-12-03T01:04:25.684Z,13.80
2022-12-03T01:05:25.658Z,14.00
2022-12-03T01:06:25.640Z,14.20
2022-12-03T01:07:25.688Z,14.40
2022-12-03T01:08:25.608Z,14.70
2022-12-03T01:09:25.594Z,14.10
2022-12-03T01:10:25.587Z,14.30
2022-12-03T01:11:25.598Z,14.10
2022-12-03T01:12:25.566Z,14.00
2022-12-03T01:13:25.553Z,14.00
2022-12-03T01:14:25.548Z,14.00
2022-12-03T01:15:25.533Z,14.00
2022-12-03T01:16:25.614Z,14.10
2022-12-03T01:17:25.512Z,14.20
2022-12-03T01:18:25.506Z,14.10
2022-12-03T01:19:25.490Z,14.40
2022-12-03T01:20:25.483Z,14.30
2022-12-03T01:21:25.497Z,14.10
2022-12-03T01:22:25.460Z,14.30
2022-12-03T01:23:25.448Z,14.00
2022-12-03T01:24:25.438Z,13.70
2022-12-03T01:25:25.433Z,14.20
2022-12-03T01:26:25.429Z,14.20
2022-12-03T01:27:25.405Z,14.00
2022-12-03T01:28:25.397Z,14.00
2022-12-03T01:29:25.393Z,13.90
2022-12-03T01:30:25.376Z,13.80
2022-12-03T01:31:25.471Z,14.00
2022-12-03T01:32:25.355Z,13.80
2022-12-03T01:33:25.345Z,13.70
2022-12-03T01:34:25.337Z,13.60
2022-12-03T01:35:25.322Z,14.00
2022-12-03T01:36:25.321Z,14.00
2022-12-03T01:37:25.318Z,13.80
2022-12-03T01:38:25.293Z,15.10
2022-12-03T01:39:25.278Z,14.00
2022-12-03T01:40:25.272Z,14.10
2022-12-03T01:41:25.270Z,14.40
2022-12-03T01:42:25.253Z,14.00
2022-12-03T01:43:25.238Z,13.80
2022-12-03T01:44:25.230Z,13.80
2022-12-03T01:45:25.217Z,13.60
2022-12-03T01:46:25.270Z,13.80
2022-12-03T01:47:25.198Z,14.00
2022-12-03T01:48:25.190Z,14.10
2022-12-03T01:49:25.178Z,14.20
2022-12-03T01:50:25.165Z,14.30
2022-12-03T01:51:25.161Z,13.90
2022-12-03T01:52:25.143Z,15.10
2022-12-03T01:53:25.151Z,14.10
2022-12-03T01:54:25.123Z,14.30
2022-12-03T01:55:25.110Z,14.10
2022-12-03T01:56:25.113Z,14.20
2022-12-03T01:57:25.091Z,14.10
2022-12-03T01:58:25.122Z,14.10
2022-12-03T01:59:25.077Z,14.20
2022-12-03T02:00:25.075Z,14.30
2022-12-03T02:01:25.110Z,14.00
2022-12-03T02:02:25.040Z,14.10
2022-12-03T02:03:25.027Z,14.20
2022-12-03T02:04:25.121Z,14.10
2022-12-03T02:05:25.006Z,14.00
2022-12-03T02:06:25.010Z,14.30
2022-12-03T02:07:25.099Z,15.10
2022-12-03T02:08:24.976Z,13.90
2022-12-03T02:09:24.982Z,14.00
2022-12-03T02:10:24.956Z,14.90
2022-12-03T02:11:24.952Z,14.00
2022-12-03T02:12:24.933Z,14.10
2022-12-03T02:13:24.922Z,14.40
2022-12-03T02:14:24.912Z,14.20
2022-12-03T02:15:24.901Z,13.90
2022-12-03T02:16:25.006Z,14.00
2022-12-03T02:17:24.883Z,14.20
2022-12-03T02:18:24.873Z,14.20
2022-12-03T02:19:24.862Z,14.10
2022-12-03T02:20:24.851Z,14.20
2022-12-03T02:21:24.850Z,14.00
2022-12-03T02:22:24.829Z,14.00
2022-12-03T02:23:24.825Z,14.40
2022-12-03T02:24:24.807Z,15.00
2022-12-03T02:25:24.825Z,13.90
2022-12-03T02:26:24.808Z,14.20
2022-12-03T02:27:24.784Z,14.40
2022-12-03T02:28:24.765Z,14.30
2022-12-03T02:29:24.757Z,14.30
2022-12-03T02:30:24.746Z,14.00
2022-12-03T02:31:24.821Z,14.30
2022-12-03T02:32:24.722Z,13.90
2022-12-03T02:33:24.714Z,14.10
2022-12-03T02:34:24.701Z,14.30
2022-12-03T02:35:24.695Z,14.30
2022-12-03T02:36:24.688Z,14.20
2022-12-03T02:37:24.676Z,14.20
2022-12-03T02:38:24.664Z,15.10
2022-12-03T02:39:24.655Z,14.10
2022-12-03T02:40:24.637Z,15.00
2022-12-03T02:41:24.662Z,14.10
2022-12-03T02:42:24.621Z,14.10
2022-12-03T02:43:24.616Z,14.10
2022-12-03T02:44:24.597Z,14.30
2022-12-03T02:45:24.589Z,14.40
2022-12-03T02:46:24.633Z,14.30
2022-12-03T02:47:24.571Z,14.50
2022-12-03T02:48:24.559Z,14.50
2022-12-03T02:49:24.553Z,14.50
2022-12-03T02:50:24.533Z,14.40
2022-12-03T02:51:24.534Z,14.20
2022-12-03T02:52:24.516Z,14.50
2022-12-03T02:53:24.505Z,14.70
2022-12-03T02:54:24.494Z,14.20
2022-12-03T02:55:24.484Z,14.30
2022-12-03T02:56:24.478Z,14.90
2022-12-03T02:57:24.479Z,14.40
2022-12-03T02:58:24.454Z,14.40
2022-12-03T02:59:24.446Z,14.70
2022-12-03T03:00:24.431Z,14.40
2022-12-03T03:01:24.540Z,14.60
2022-12-03T03:02:24.521Z,14.20
2022-12-03T03:03:24.407Z,14.20
2022-12-03T03:04:24.389Z,14.30
2022-12-03T03:05:24.393Z,14.80
2022-12-03T03:06:24.385Z,14.50
2022-12-03T03:07:24.424Z,14.90
2022-12-03T03:08:24.344Z,16.00
2022-12-03T03:09:24.334Z,14.10
2022-12-03T03:10:24.337Z,14.10
2022-12-03T03:11:24.322Z,14.40
2022-12-03T03:12:24.319Z,14.60
2022-12-03T03:13:24.328Z,14.10
2022-12-03T03:14:24.283Z,14.10
2022-12-03T03:15:24.270Z,14.10
2022-12-03T03:16:24.362Z,14.20
2022-12-03T03:17:24.250Z,14.50
2022-12-03T03:18:24.241Z,14.20
2022-12-03T03:19:24.230Z,14.20
2022-12-03T03:20:24.219Z,14.30
2022-12-03T03:21:24.219Z,14.30
2022-12-03T03:22:24.200Z,15.00
2022-12-03T03:23:24.186Z,14.80
2022-12-03T03:24:24.180Z,14.20
2022-12-03T03:25:24.174Z,14.10
2022-12-03T03:26:24.162Z,14.30
2022-12-03T03:27:24.145Z,14.30
2022-12-03T03:28:24.133Z,14.20
2022-12-03T03:29:24.143Z,14.20
2022-12-03T03:30:24.109Z,14.20
2022-12-03T03:31:24.247Z,14.10
2022-12-03T03:32:24.089Z,14.20
2022-12-03T03:33:24.080Z,14.30
2022-12-03T03:34:24.069Z,14.30
2022-12-03T03:35:24.059Z,14.20
2022-12-03T03:36:24.056Z,14.20
2022-12-03T03:37:24.070Z,14.90
2022-12-03T03:38:24.028Z,14.70
2022-12-03T03:39:24.025Z,14.10
2022-12-03T03:40:24.007Z,14.00
2022-12-03T03:41:24.007Z,14.40
2022-12-03T03:42:23.986Z,14.30
2022-12-03T03:43:23.985Z,14.10
2022-12-03T03:44:23.966Z,14.10
2022-12-03T03:45:28.753Z,14.20
2022-12-03T03:46:25.012Z,14.10
2022-12-03T03:47:23.988Z,14.50
2022-12-03T03:48:23.924Z,14.30
2022-12-03T03:49:23.915Z,14.10
2022-12-03T03:50:23.903Z,14.10
2022-12-03T03:51:23.912Z,14.50
2022-12-03T03:52:23.880Z,15.70
2022-12-03T03:53:23.875Z,14.10
2022-12-03T03:54:23.858Z,13.70
2022-12-03T03:55:23.851Z,14.20
2022-12-03T03:56:23.851Z,14.40
2022-12-03T03:57:23.830Z,14.10
2022-12-03T03:58:23.815Z,14.10
2022-12-03T03:59:23.814Z,14.20
2022-12-03T04:00:23.795Z,14.10
2022-12-03T04:01:23.932Z,14.10
2022-12-03T04:02:23.774Z,14.30
2022-12-03T04:03:23.768Z,14.20
2022-12-03T04:04:23.874Z,14.20
2022-12-03T04:05:23.749Z,14.10
2022-12-03T04:06:23.741Z,15.00
2022-12-03T04:07:23.742Z,14.20
2022-12-03T04:08:23.711Z,14.60
2022-12-03T04:09:23.706Z,16.20
2022-12-03T04:10:23.697Z,14.10
2022-12-03T04:11:23.681Z,14.40
2022-12-03T04:12:23.679Z,14.50
2022-12-03T04:13:23.661Z,14.20
2022-12-03T04:14:23.648Z,14.10
2022-12-03T04:15:23.639Z,14.10
2022-12-03T04:16:23.697Z,14.30
2022-12-03T04:17:23.646Z,14.40
2022-12-03T04:18:23.640Z,14.10
2022-12-03T04:19:23.598Z,14.10
2022-12-03T04:20:23.589Z,14.00
2022-12-03T04:21:23.577Z,14.40
2022-12-03T04:22:23.591Z,15.00
2022-12-03T04:23:29.266Z,14.00
2022-12-03T04:24:24.551Z,13.90
2022-12-03T04:25:23.536Z,14.30
2022-12-03T04:26:23.525Z,14.10
2022-12-03T04:27:23.526Z,14.50
2022-12-03T04:28:23.506Z,14.00
2022-12-03T04:29:23.497Z,14.00
2022-12-03T04:30:23.559Z,14.00
2022-12-03T04:31:23.530Z,14.00
2022-12-03T04:32:23.478Z,14.00
2022-12-03T04:33:23.476Z,14.20
2022-12-03T04:34:23.443Z,14.20
2022-12-03T04:35:23.462Z,14.40
2022-12-03T04:36:23.418Z,14.20
2022-12-03T04:37:23.417Z,14.10
2022-12-03T04:38:23.401Z,14.50
2022-12-03T04:39:23.388Z,13.90
2022-12-03T04:40:23.376Z,14.40
2022-12-03T04:41:23.371Z,14.50
2022-12-03T04:42:23.366Z,14.20
2022-12-03T04:43:23.347Z,13.90
2022-12-03T04:44:23.334Z,14.10
2022-12-03T04:45:23.324Z,14.60
2022-12-03T04:46:23.416Z,14.00
2022-12-03T04:47:23.311Z,14.10
2022-12-03T04:48:23.291Z,13.60
2022-12-03T04:49:23.300Z,14.00
2022-12-03T04:50:23.271Z,14.00
2022-12-03T04:51:23.261Z,14.30
2022-12-03T04:52:23.261Z,14.30
2022-12-03T04:53:23.263Z,13.70
2022-12-03T04:54:23.227Z,14.30
2022-12-03T04:55:23.221Z,14.60
2022-12-03T04:56:23.207Z,13.90
2022-12-03T04:57:23.289Z,14.00
2022-12-03T04:58:23.187Z,14.20
2022-12-03T04:59:23.182Z,13.80
2022-12-03T05:00:23.176Z,13.90
2022-12-03T05:01:23.217Z,14.00
2022-12-03T05:02:23.184Z,13.60
2022-12-03T05:03:23.136Z,13.70
2022-12-03T05:04:23.125Z,14.10
2022-12-03T05:05:23.133Z,14.00
2022-12-03T05:06:23.103Z,13.90
2022-12-03T05:07:23.109Z,14.00
2022-12-03T05:08:23.082Z,13.90
2022-12-03T05:09:23.072Z,14.30
2022-12-03T05:10:23.069Z,13.90
2022-12-03T05:11:23.052Z,13.70
2022-12-03T05:12:23.078Z,13.70
2022-12-03T05:13:23.032Z,13.70
2022-12-03T05:14:23.019Z,13.70
2022-12-03T05:15:23.010Z,13.50
2022-12-03T05:16:23.022Z,13.90
2022-12-03T05:17:23.003Z,14.30
2022-12-03T05:18:22.978Z,13.80
2022-12-03T05:19:22.968Z,13.80
2022-12-03T05:20:22.957Z,13.70
2022-12-03T05:21:22.967Z,13.60
2022-12-03T05:22:22.948Z,14.00
2022-12-03T05:23:22.925Z,14.10
2022-12-03T05:24:22.914Z,14.00
2022-12-03T05:25:22.905Z,13.70
2022-12-03T05:26:22.910Z,13.90
2022-12-03T05:27:24.145Z,13.60
2022-12-03T05:28:22.882Z,13.50
2022-12-03T05:29:22.869Z,13.80
2022-12-03T05:30:23.025Z,13.90
2022-12-03T05:31:22.911Z,13.60
2022-12-03T05:32:22.907Z,13.70
2022-12-03T05:33:22.824Z,13.50
2022-12-03T05:34:22.809Z,13.60
2022-12-03T05:35:22.800Z,14.30
2022-12-03T05:36:22.788Z,13.50
2022-12-03T05:37:22.808Z,13.90
2022-12-03T05:38:22.771Z,13.50
2022-12-03T05:39:22.762Z,13.40
2022-12-03T05:40:22.747Z,13.50
2022-12-03T05:41:22.737Z,13.40
2022-12-03T05:42:22.735Z,13.30
2022-12-03T05:43:22.717Z,13.80
2022-12-03T05:44:22.703Z,13.50
2022-12-03T05:45:22.694Z,13.40
2022-12-03T05:46:22.820Z,13.50
2022-12-03T05:48:32.557Z,12.60
2022-12-03T05:49:32.542Z,13.00
2022-12-03T05:50:32.533Z,13.10
2022-12-03T05:51:32.533Z,13.10
2022-12-03T05:52:32.523Z,13.30
2022-12-03T05:53:32.500Z,13.90
2022-12-03T05:54:32.487Z,13.30
2022-12-03T05:55:32.473Z,13.20
2022-12-03T05:56:32.474Z,13.20
2022-12-03T05:57:32.453Z,13.50
2022-12-03T05:58:32.444Z,13.20
2022-12-03T05:59:32.436Z,13.40
2022-12-03T06:00:32.588Z,13.30
2022-12-03T06:01:32.425Z,13.60
2022-12-03T06:02:32.559Z,13.30
2022-12-03T06:03:32.608Z,13.30
2022-12-03T06:04:32.378Z,13.30
2022-12-03T06:05:32.370Z,13.60
2022-12-03T06:06:32.372Z,13.40
2022-12-03T06:07:32.434Z,13.60
2022-12-03T06:08:32.370Z,13.30
2022-12-03T06:09:32.330Z,13.40
2022-12-03T06:10:32.316Z,13.50
2022-12-03T06:11:32.320Z,13.50
2022-12-03T06:12:32.296Z,13.20
2022-12-03T06:13:32.289Z,13.40
2022-12-03T06:14:32.277Z,13.10
2022-12-03T06:15:32.314Z,13.40
2022-12-03T06:16:32.295Z,13.10
2022-12-03T06:17:32.248Z,13.10
2022-12-03T06:18:32.238Z,13.00
2022-12-03T06:19:32.227Z,13.20
2022-12-03T06:20:32.226Z,13.00
2022-12-03T06:21:32.220Z,13.00
2022-12-03T06:22:32.192Z,13.10
2022-12-03T06:23:32.185Z,13.20
2022-12-03T06:24:32.192Z,13.10
2022-12-03T06:25:32.162Z,13.10
2022-12-03T06:26:32.161Z,13.00
2022-12-03T06:27:32.161Z,12.90
2022-12-03T06:28:32.127Z,12.90
2022-12-03T06:29:32.129Z,12.90
2022-12-03T06:30:32.110Z,13.00
2022-12-03T06:31:32.198Z,12.90
2022-12-03T06:32:32.085Z,13.30
2022-12-03T06:33:32.080Z,13.10
2022-12-03T06:34:32.069Z,13.10
2022-12-03T06:35:32.061Z,13.10
2022-12-03T06:36:32.058Z,13.30
2022-12-03T06:37:32.035Z,13.10
2022-12-03T06:38:32.023Z,13.00
2022-12-03T06:39:32.016Z,13.00
2022-12-03T06:40:32.022Z,12.90
2022-12-03T06:41:32.009Z,12.90
2022-12-03T06:42:31.983Z,13.00
2022-12-03T06:43:31.978Z,13.10
2022-12-03T06:44:31.965Z,13.70
2022-12-03T06:45:31.952Z,12.90
2022-12-03T06:46:32.083Z,12.90
2022-12-03T06:47:31.930Z,13.10
2022-12-03T06:48:31.924Z,13.10
2022-12-03T06:49:31.915Z,13.10
2022-12-03T06:50:31.907Z,12.70
2022-12-03T06:51:31.925Z,12.80
2022-12-03T06:52:31.881Z,12.90
2022-12-03T06:53:31.867Z,13.00
2022-12-03T06:54:31.860Z,13.10
2022-12-03T06:55:31.856Z,13.80
2022-12-03T06:56:36.864Z,13.10
2022-12-03T06:57:32.825Z,13.10
2022-12-03T06:58:31.816Z,13.20
2022-12-03T06:59:31.807Z,13.20
2022-12-03T07:00:31.795Z,13.10
2022-12-03T07:01:31.835Z,13.30
2022-12-03T07:02:31.815Z,13.20
2022-12-03T07:03:31.763Z,13.30
2022-12-03T07:04:31.765Z,13.30
2022-12-03T07:05:31.741Z,14.10
2022-12-03T07:06:31.743Z,13.30
2022-12-03T07:07:31.803Z,13.80
2022-12-03T07:08:31.716Z,13.80
2022-12-03T07:09:31.701Z,13.80
2022-12-03T07:10:31.692Z,13.40
2022-12-03T07:11:31.702Z,13.50
2022-12-03T07:12:31.686Z,13.50
2022-12-03T07:13:31.665Z,13.70
2022-12-03T07:14:31.650Z,13.70
2022-12-03T07:15:31.640Z,13.60
2022-12-03T07:16:31.692Z,13.30
2022-12-03T07:17:31.630Z,13.30
2022-12-03T07:18:31.611Z,13.40
2022-12-03T07:19:33.060Z,13.40
2022-12-03T07:20:31.585Z,13.40
2022-12-03T07:21:31.613Z,13.50
2022-12-03T07:22:31.564Z,13.30
2022-12-03T07:23:31.556Z,13.50
2022-12-03T07:24:31.545Z,13.40
2022-12-03T07:25:31.539Z,13.60
2022-12-03T07:26:31.551Z,13.90
2022-12-03T07:27:31.528Z,13.30
2022-12-03T07:28:31.521Z,13.50
2022-12-03T07:29:31.516Z,13.30
2022-12-03T07:30:31.481Z,13.40
2022-12-03T07:31:31.603Z,13.80
2022-12-03T07:32:31.462Z,13.60
2022-12-03T07:33:31.490Z,13.70
2022-12-03T07:34:31.450Z,13.40
2022-12-03T07:35:31.444Z,13.80
2022-12-03T07:36:31.430Z,14.50
2022-12-03T07:37:31.409Z,13.40
2022-12-03T07:38:31.407Z,13.30
2022-12-03T07:39:31.389Z,13.50
2022-12-03T07:40:31.392Z,13.60
2022-12-03T07:41:31.377Z,13.50
2022-12-03T07:42:31.357Z,13.50
2022-12-03T07:43:31.357Z,13.50
2022-12-03T07:44:31.358Z,13.50
2022-12-03T07:45:31.333Z,14.00
2022-12-03T07:46:31.376Z,13.20
2022-12-03T07:47:31.308Z,13.60
2022-12-03T07:48:31.297Z,13.50
2022-12-03T07:49:31.293Z,13.30
2022-12-03T07:50:31.277Z,13.30
2022-12-03T07:51:32.508Z,13.60
2022-12-03T07:52:31.251Z,13.50
2022-12-03T07:53:31.252Z,13.40
2022-12-03T07:54:31.232Z,13.30
2022-12-03T07:55:31.235Z,13.80
2022-12-03T07:56:31.225Z,13.50
2022-12-03T07:57:31.200Z,13.50
2022-12-03T07:58:31.193Z,13.50
2022-12-03T07:59:31.192Z,13.50
2022-12-03T08:00:31.254Z,13.50
2022-12-03T08:01:31.172Z,13.50
2022-12-03T08:02:31.228Z,13.60
2022-12-03T08:03:31.140Z,13.50
2022-12-03T08:04:31.130Z,13.80
2022-12-03T08:05:31.121Z,13.60
2022-12-03T08:06:31.131Z,13.90
2022-12-03T08:07:31.147Z,14.40
2022-12-03T08:08:31.099Z,13.60
2022-12-03T08:09:31.092Z,13.40
2022-12-03T08:10:31.064Z,13.60
2022-12-03T08:11:31.102Z,13.80
2022-12-03T08:12:31.043Z,13.50
2022-12-03T08:13:31.032Z,13.90
2022-12-03T08:14:31.025Z,13.70
2022-12-03T08:15:37.122Z,13.80
2022-12-03T08:16:32.146Z,14.30
2022-12-03T08:17:30.997Z,14.80
2022-12-03T08:18:30.981Z,13.60
2022-12-03T08:19:30.973Z,13.50
2022-12-03T08:20:30.964Z,13.90
2022-12-03T08:21:30.967Z,13.90
2022-12-03T08:22:30.942Z,14.00
2022-12-03T08:23:30.929Z,13.80
2022-12-03T08:24:30.924Z,14.20
2022-12-03T08:25:30.917Z,14.10
2022-12-03T08:26:30.907Z,13.90
2022-12-03T08:27:30.892Z,14.10
2022-12-03T08:28:30.879Z,14.40
2022-12-03T08:29:30.867Z,13.90
2022-12-03T08:30:30.933Z,13.60
2022-12-03T08:31:33.553Z,14.00
2022-12-03T08:32:30.854Z,13.60
2022-12-03T08:33:30.834Z,14.80
2022-12-03T08:34:30.817Z,14.60
2022-12-03T08:35:30.807Z,13.50
2022-12-03T08:36:30.812Z,13.90
2022-12-03T08:37:30.880Z,14.80
2022-12-03T08:38:30.780Z,13.50
2022-12-03T08:39:30.775Z,13.00
2022-12-03T08:40:30.756Z,13.30
2022-12-03T08:41:30.756Z,13.40
2022-12-03T08:42:30.738Z,13.20
2022-12-03T08:43:30.737Z,12.60
2022-12-03T08:44:30.711Z,12.90
2022-12-03T08:45:30.782Z,13.80
2022-12-03T08:46:30.765Z,13.10
2022-12-03T08:47:30.679Z,13.00
2022-12-03T08:48:30.687Z,13.70
2022-12-03T08:49:30.659Z,14.20
2022-12-03T08:50:30.650Z,13.40
2022-12-03T08:51:30.711Z,14.10
2022-12-03T08:52:30.630Z,14.50
2022-12-03T08:53:30.622Z,14.50
2022-12-03T08:54:30.611Z,13.20
2022-12-03T08:55:30.597Z,13.10
2022-12-03T08:56:30.598Z,14.70
2022-12-03T08:57:30.590Z,14.20
2022-12-03T08:58:30.567Z,13.00
2022-12-03T08:59:30.558Z,13.00
2022-12-03T09:00:30.563Z,13.80
2022-12-03T09:01:30.668Z,13.40
2022-12-03T09:02:30.549Z,13.10
2022-12-03T09:03:30.517Z,13.90
2022-12-03T09:04:30.648Z,14.50
2022-12-03T09:05:30.495Z,13.50
2022-12-03T09:06:30.484Z,13.20
2022-12-03T09:07:30.567Z,13.80
2022-12-03T09:08:30.465Z,13.90
2022-12-03T09:09:30.459Z,12.80
2022-12-03T09:10:30.442Z,13.20
2022-12-03T09:11:30.436Z,13.20
2022-12-03T09:12:30.442Z,13.30
2022-12-03T09:13:30.455Z,12.50
2022-12-03T09:14:30.400Z,12.80
2022-12-03T09:15:30.390Z,12.90
2022-12-03T09:16:30.514Z,13.40
2022-12-03T09:17:30.395Z,14.50
2022-12-03T09:18:30.363Z,12.60
2022-12-03T09:19:30.360Z,12.30
2022-12-03T09:20:30.359Z,13.20
2022-12-03T09:21:30.352Z,12.40
2022-12-03T09:22:30.338Z,12.10
2022-12-03T09:23:30.392Z,12.90
2022-12-03T09:24:30.299Z,12.50
2022-12-03T09:25:30.283Z,12.70
2022-12-03T09:26:30.272Z,12.90
2022-12-03T09:27:30.272Z,12.50
2022-12-03T09:28:30.257Z,12.50
2022-12-03T09:29:30.290Z,12.80
2022-12-03T09:30:30.243Z,13.00
2022-12-03T09:31:30.377Z,12.70
2022-12-03T09:32:30.321Z,12.30
2022-12-03T09:33:38.190Z,12.00
2022-12-03T09:34:37.221Z,12.10
2022-12-03T09:35:30.171Z,13.20
2022-12-03T09:36:30.177Z,12.80
2022-12-03T09:37:30.160Z,12.30
2022-12-03T09:38:30.140Z,12.80
2022-12-03T09:39:30.132Z,13.00
2022-12-03T09:40:30.158Z,12.10
2022-12-03T09:41:30.120Z,12.60
2022-12-03T09:42:30.108Z,13.60
2022-12-03T09:43:43.362Z,11.90
2022-12-03T09:44:31.074Z,11.90
2022-12-03T09:45:30.094Z,12.70
2022-12-03T09:46:30.158Z,13.30
2022-12-03T09:47:30.067Z,12.70
2022-12-03T09:48:37.758Z,12.50
2022-12-03T09:49:30.084Z,12.10
2022-12-03T09:50:30.036Z,13.10
2022-12-03T09:51:30.023Z,13.90
2022-12-03T09:52:30.062Z,12.40
2022-12-03T09:53:30.069Z,12.40
2022-12-03T09:54:30.008Z,13.40
2022-12-03T09:55:29.976Z,13.00
2022-12-03T09:56:29.982Z,12.20
2022-12-03T09:57:29.999Z,11.90
2022-12-03T09:58:34.508Z,13.20
2022-12-03T09:59:30.960Z,12.80
2022-12-03T10:00:29.931Z,12.40
2022-12-03T10:01:30.650Z,12.30
2022-12-03T10:02:29.911Z,12.80
2022-12-03T10:03:37.766Z,12.20
2022-12-03T10:04:30.052Z,12.90
2022-12-03T10:05:29.856Z,12.20
2022-12-03T10:06:29.855Z,12.30
2022-12-03T10:07:29.899Z,12.40
2022-12-03T10:08:32.288Z,12.30
2022-12-03T10:09:29.837Z,13.50
2022-12-03T10:10:29.820Z,12.60
2022-12-03T10:11:29.794Z,12.40
2022-12-03T10:12:29.791Z,12.80
2022-12-03T10:13:29.780Z,14.00
2022-12-03T10:14:29.764Z,12.50
2022-12-03T10:15:29.787Z,12.60
2022-12-03T10:16:36.859Z,12.60
2022-12-03T10:17:29.742Z,13.60
2022-12-03T10:18:30.852Z,13.80
2022-12-03T10:19:29.771Z,12.60
2022-12-03T10:20:29.704Z,13.30
2022-12-03T10:21:29.700Z,12.90
2022-12-03T10:22:29.695Z,12.90
2022-12-03T10:23:29.681Z,12.90
2022-12-03T10:24:29.687Z,12.90
2022-12-03T10:25:29.687Z,13.80
2022-12-03T10:26:29.641Z,14.30
2022-12-03T10:27:29.646Z,13.00
2022-12-03T10:28:29.630Z,13.50
2022-12-03T10:29:33.580Z,13.60
2022-12-03T10:30:29.790Z,14.10
2022-12-03T10:31:29.705Z,13.10
2022-12-03T10:32:29.604Z,13.30
2022-12-03T10:33:29.573Z,13.40
2022-12-03T10:34:29.555Z,12.80
2022-12-03T10:35:29.548Z,14.10
2022-12-03T10:36:29.534Z,13.30
2022-12-03T10:37:29.533Z,12.90
2022-12-03T10:38:29.514Z,13.10
2022-12-03T10:39:29.502Z,13.50
2022-12-03T10:40:29.508Z,13.70
2022-12-03T10:41:29.487Z,14.00
2022-12-03T10:42:29.531Z,13.30
2022-12-03T10:43:29.463Z,12.90
2022-12-03T10:44:29.451Z,13.40
2022-12-03T10:45:29.439Z,13.60
2022-12-03T10:46:29.656Z,12.90
2022-12-03T10:47:29.680Z,12.90
2022-12-03T10:48:29.413Z,13.60
2022-12-03T10:49:29.401Z,12.70
2022-12-03T10:50:29.390Z,12.70
2022-12-03T10:51:29.376Z,12.70
2022-12-03T10:52:29.393Z,13.00
2022-12-03T10:53:29.379Z,13.00
2022-12-03T10:54:29.353Z,12.90
2022-12-03T10:55:29.333Z,13.60
2022-12-03T10:56:29.339Z,13.30
2022-12-03T10:57:29.338Z,13.20
2022-12-03T10:58:29.303Z,13.10
2022-12-03T10:59:29.307Z,13.00
2022-12-03T11:00:29.290Z,13.10
2022-12-03T11:01:29.349Z,13.10
2022-12-03T11:02:29.269Z,13.70
2022-12-03T11:03:29.423Z,14.60
2022-12-03T11:04:29.244Z,12.90
2022-12-03T11:05:29.227Z,13.30
2022-12-03T11:06:29.233Z,13.70
2022-12-03T11:07:29.269Z,13.00
2022-12-03T11:08:29.199Z,13.30
2022-12-03T11:09:29.207Z,13.20
2022-12-03T11:10:29.200Z,13.20
2022-12-03T11:11:29.174Z,13.20
2022-12-03T11:12:29.186Z,13.20
2022-12-03T11:13:29.150Z,13.10
2022-12-03T11:14:29.137Z,13.60
2022-12-03T11:15:29.220Z,13.60
2022-12-03T11:16:29.169Z,13.10
2022-12-03T11:17:29.120Z,13.90
2022-12-03T11:18:29.096Z,13.20
2022-12-03T11:19:29.077Z,13.20
2022-12-03T11:20:29.097Z,13.30
2022-12-03T11:21:29.190Z,13.20
2022-12-03T11:22:29.084Z,13.00
2022-12-03T11:23:29.041Z,13.30
2022-12-03T11:24:29.030Z,13.40
2022-12-03T11:25:29.048Z,13.40
2022-12-03T11:26:29.023Z,13.30
2022-12-03T11:27:29.048Z,13.40
2022-12-03T11:28:29.011Z,13.90
2022-12-03T11:29:29.085Z,13.00
2022-12-03T11:30:28.974Z,13.30
2022-12-03T11:31:29.084Z,15.10
2022-12-03T11:32:31.986Z,13.40
2022-12-03T11:33:28.942Z,13.20
2022-12-03T11:34:28.944Z,13.40
2022-12-03T11:35:28.950Z,13.40
2022-12-03T11:36:54.025Z,13.20
2022-12-03T11:37:30.111Z,13.10
2022-12-03T11:38:28.893Z,13.10
2022-12-03T11:39:28.876Z,14.40
2022-12-03T11:40:28.858Z,12.80
2022-12-03T11:41:28.852Z,12.80
2022-12-03T11:42:28.857Z,13.20
2022-12-03T11:43:28.836Z,13.40
2022-12-03T11:44:28.867Z,14.10
2022-12-03T11:45:28.808Z,13.30
2022-12-03T11:46:28.899Z,13.20
2022-12-03T11:47:28.802Z,13.90
2022-12-03T11:48:28.908Z,13.30
2022-12-03T11:49:28.777Z,13.40
2022-12-03T11:50:28.788Z,13.30
2022-12-03T11:51:28.742Z,14.00
2022-12-03T11:52:28.749Z,13.30
2022-12-03T11:53:28.742Z,13.50
2022-12-03T11:54:28.740Z,13.40
2022-12-03T11:55:28.705Z,13.80
2022-12-03T11:56:28.706Z,13.20
2022-12-03T11:57:28.689Z,14.40
2022-12-03T11:58:28.671Z,13.50
2022-12-03T11:59:28.663Z,13.10
2022-12-03T12:00:28.685Z,13.60
2022-12-03T12:01:28.640Z,14.60
2022-12-03T12:02:28.751Z,13.50
2022-12-03T12:03:28.969Z,13.80
2022-12-03T12:04:28.628Z,13.30
2022-12-03T12:05:28.600Z,14.10
2022-12-03T12:06:28.591Z,13.50
2022-12-03T12:07:28.618Z,13.90
2022-12-03T12:08:28.563Z,14.00
2022-12-03T12:09:28.551Z,13.40
2022-12-03T12:10:28.550Z,13.50
2022-12-03T12:11:28.532Z,13.80
2022-12-03T12:12:28.547Z,13.40
2022-12-03T12:13:28.509Z,14.10
2022-12-03T12:14:28.512Z,13.40
2022-12-03T12:15:28.493Z,13.30
2022-12-03T12:16:28.580Z,13.70
2022-12-03T12:17:28.478Z,13.70
2022-12-03T12:18:28.481Z,13.20
2022-12-03T12:19:28.447Z,13.50
2022-12-03T12:20:28.456Z,13.60
2022-12-03T12:21:28.429Z,13.10
2022-12-03T12:22:28.435Z,14.00
2022-12-03T12:23:28.416Z,13.90
2022-12-03T12:24:28.397Z,13.20
2022-12-03T12:25:28.393Z,13.60
2022-12-03T12:26:28.392Z,13.70
2022-12-03T12:27:28.373Z,13.20
2022-12-03T12:28:28.355Z,13.90
2022-12-03T12:29:28.347Z,13.40
2022-12-03T12:30:28.336Z,13.70
2022-12-03T12:31:28.431Z,13.90
2022-12-03T12:32:28.348Z,13.20
2022-12-03T12:33:28.320Z,13.60
2022-12-03T12:34:28.290Z,13.80
2022-12-03T12:35:28.299Z,14.10
2022-12-03T12:36:28.281Z,13.40
2022-12-03T12:37:28.277Z,13.90
2022-12-03T12:38:28.289Z,13.70
2022-12-03T12:39:28.236Z,13.80
2022-12-03T12:40:28.226Z,13.50
2022-12-03T12:41:28.211Z,13.10
2022-12-03T12:42:28.221Z,13.60
2022-12-03T12:43:28.196Z,13.50
2022-12-03T12:44:28.190Z,14.00
2022-12-03T12:45:28.179Z,13.30
2022-12-03T12:46:48.918Z,13.40
2022-12-03T12:47:29.240Z,13.90
2022-12-03T12:48:28.161Z,13.70
2022-12-03T12:49:28.141Z,13.60
2022-12-03T12:50:28.124Z,13.40
2022-12-03T12:51:28.155Z,14.10
2022-12-03T12:52:28.130Z,14.00
2022-12-03T12:53:28.121Z,13.30